createdAt,value
2024-02-15T00:01:46.684Z,101158.84
2024-02-15T00:04:34.780Z,101159.09
2024-02-15T00:07:23.783Z,101164.38
2024-02-15T00:10:11.063Z,101160.72
2024-02-15T00:12:58.005Z,101160.53
2024-02-15T00:15:49.805Z,101163.78
2024-02-15T00:18:36.262Z,101164.66
2024-02-15T00:21:23.162Z,101162.75
2024-02-15T00:24:10.043Z,101163.97
2024-02-15T00:26:57.337Z,101156.03
2024-02-15T00:29:44.916Z,101162.53
2024-02-15T00:32:33.252Z,101157.94
2024-02-15T00:35:20.276Z,101116.75
2024-02-15T00:38:08.326Z,101162.63
2024-02-15T00:40:55.530Z,101152.03
2024-02-15T00:43:42.362Z,101155.38
2024-02-15T00:46:30.292Z,101154.50
2024-02-15T00:49:21.019Z,101153.91
2024-02-15T00:52:08.465Z,101157.97
2024-02-15T00:54:55.272Z,101159.91
2024-02-15T00:57:42.130Z,101157.84
2024-02-15T01:00:29.618Z,101159.13
2024-02-15T01:03:17.729Z,101160.81
2024-02-15T01:06:08.117Z,101160.69
2024-02-15T01:08:55.121Z,101165.16
2024-02-15T01:11:42.198Z,101159.88
2024-02-15T01:14:31.827Z,101159.44
2024-02-15T01:17:18.654Z,101162.22
2024-02-15T01:20:06.636Z,101160.25
2024-02-15T01:22:55.148Z,101158.94
2024-02-15T01:25:42.199Z,101157.94
2024-02-15T01:28:28.956Z,101163.47
2024-02-15T01:31:18.368Z,101152.44
2024-02-15T01:34:05.333Z,101156.63
2024-02-15T01:36:52.336Z,101155.56
2024-02-15T01:39:41.661Z,101158.66
2024-02-15T01:42:28.310Z,101155.22
2024-02-15T01:45:16.130Z,101158.69
2024-02-15T01:48:05.080Z,101149.28
2024-02-15T01:50:53.176Z,101148.31
2024-02-15T01:53:40.600Z,101131.69
2024-02-15T01:56:31.683Z,101139.56
2024-02-15T01:59:18.458Z,101145.44
2024-02-15T02:02:10.643Z,101139.69
2024-02-15T02:04:57.565Z,101141.81
2024-02-15T02:07:44.866Z,101131.50
2024-02-15T02:10:34.262Z,101136.06
2024-02-15T02:13:23.033Z,101139.06
2024-02-15T02:16:28.876Z,101138.06
2024-02-15T02:19:15.760Z,101134.78
2024-02-15T02:22:02.781Z,101130.25
2024-02-15T02:25:02.002Z,101130.50
2024-02-15T02:27:49.646Z,101133.72
2024-02-15T02:30:36.750Z,101124.84
2024-02-15T02:33:23.998Z,101130.91
2024-02-15T02:36:13.378Z,101120.75
2024-02-15T02:39:02.210Z,101130.41
2024-02-15T02:41:50.551Z,101129.50
2024-02-15T02:44:37.545Z,101130.03
2024-02-15T02:47:24.466Z,101136.25
2024-02-15T02:50:12.121Z,101139.72
2024-02-15T02:52:59.202Z,101131.34
2024-02-15T02:55:46.052Z,101141.63
2024-02-15T02:58:34.477Z,101134.78
2024-02-15T03:01:21.360Z,101141.56
2024-02-15T03:04:08.366Z,101136.75
2024-02-15T03:06:57.297Z,101138.06
2024-02-15T03:09:44.000Z,101146.69
2024-02-15T03:12:31.179Z,101142.13
2024-02-15T03:15:20.070Z,101142.50
2024-02-15T03:18:08.426Z,101134.91
2024-02-15T03:20:54.985Z,101128.03
2024-02-15T03:23:44.933Z,101134.25
2024-02-15T03:26:35.052Z,101121.28
2024-02-15T03:29:22.918Z,101124.88
2024-02-15T03:32:11.045Z,101120.25
2024-02-15T03:34:57.988Z,101128.03
2024-02-15T03:37:45.181Z,101137.22
2024-02-15T03:40:35.017Z,101137.34
2024-02-15T03:43:21.842Z,101137.94
2024-02-15T03:46:13.628Z,101139.47
2024-02-15T03:49:02.512Z,101146.00
2024-02-15T03:51:50.506Z,101137.22
2024-02-15T03:54:37.362Z,101141.53
2024-02-15T03:57:24.163Z,101137.47
2024-02-15T04:00:13.811Z,101132.13
2024-02-15T04:03:02.106Z,101135.06
2024-02-15T04:05:50.390Z,101133.72
2024-02-15T04:08:40.546Z,101131.94
2024-02-15T04:11:27.495Z,101131.50
2024-02-15T04:14:14.421Z,101136.78
2024-02-15T04:17:01.443Z,101144.00
2024-02-15T04:19:48.465Z,101147.22
2024-02-15T04:22:38.293Z,101148.59
2024-02-15T04:25:29.232Z,101145.38
2024-02-15T04:28:15.940Z,101147.22
2024-02-15T04:31:02.767Z,101138.84
2024-02-15T04:33:51.244Z,101141.69
2024-02-15T04:36:38.452Z,101137.53
2024-02-15T04:39:28.237Z,101133.34
2024-02-15T04:42:15.069Z,101127.94
2024-02-15T04:45:01.661Z,101132.47
2024-02-15T04:47:50.983Z,101133.56
2024-02-15T04:50:37.907Z,101124.25
2024-02-15T04:53:26.387Z,101131.84
2024-02-15T04:56:15.898Z,101123.03
2024-02-15T04:59:03.362Z,101112.81
2024-02-15T05:01:50.738Z,101132.69
2024-02-15T05:04:37.723Z,101132.13
2024-02-15T05:07:24.618Z,101134.97
2024-02-15T05:10:12.046Z,101130.75
2024-02-15T05:13:02.440Z,101140.69
2024-02-15T05:15:49.383Z,101142.44
2024-02-15T05:18:36.996Z,101146.72
2024-02-15T05:21:24.008Z,101129.88
2024-02-15T05:24:11.019Z,101149.03
2024-02-15T05:26:57.815Z,101140.59
2024-02-15T05:29:46.288Z,101149.56
2024-02-15T05:32:33.093Z,101153.03
2024-02-15T05:35:19.980Z,101151.34
2024-02-15T05:38:07.760Z,101158.16
2024-02-15T05:40:55.075Z,101153.81
2024-02-15T05:43:43.988Z,101154.69
2024-02-15T05:46:32.318Z,101154.69
2024-02-15T05:49:19.132Z,101159.16
2024-02-15T05:52:06.682Z,101146.22
2024-02-15T05:54:53.276Z,101152.19
2024-02-15T05:57:40.250Z,101153.72
2024-02-15T06:00:27.279Z,101159.00
2024-02-15T06:03:15.602Z,101145.41
2024-02-15T06:06:03.720Z,101151.78
2024-02-15T06:08:52.236Z,101152.63
2024-02-15T06:11:39.768Z,101158.78
2024-02-15T06:14:26.880Z,101156.91
2024-02-15T06:17:13.521Z,101149.00
2024-02-15T06:20:01.801Z,101156.88
2024-02-15T06:22:49.126Z,101152.69
2024-02-15T06:25:36.189Z,101158.84
2024-02-15T06:28:37.602Z,101163.06
2024-02-15T06:31:42.353Z,101163.78
2024-02-15T06:34:46.540Z,101162.13
2024-02-15T06:37:59.190Z,101165.50
2024-02-15T06:40:46.369Z,101162.09
2024-02-15T06:43:33.818Z,101171.41
2024-02-15T06:46:22.091Z,101169.19
2024-02-15T06:49:15.608Z,101175.75
2024-02-15T06:52:04.205Z,101171.41
2024-02-15T06:54:53.791Z,101179.28
2024-02-15T06:57:44.729Z,101177.94
2024-02-15T07:00:32.037Z,101180.31
2024-02-15T07:03:19.172Z,101185.66
2024-02-15T07:06:07.098Z,101188.41
2024-02-15T07:08:55.346Z,101180.03
2024-02-15T07:11:43.347Z,101192.91
2024-02-15T07:14:30.152Z,101183.81
2024-02-15T07:17:17.238Z,101181.63
2024-02-15T07:20:05.026Z,101185.47
2024-02-15T07:22:51.481Z,101185.22
2024-02-15T07:25:40.468Z,101184.22
2024-02-15T07:28:28.444Z,101182.88
2024-02-15T07:31:15.936Z,101189.34
2024-02-15T07:34:02.885Z,101182.50
2024-02-15T07:36:49.521Z,101193.50
2024-02-15T07:39:37.693Z,101187.69
2024-02-15T07:42:26.702Z,101196.03
2024-02-15T07:45:15.582Z,101194.19
2024-02-15T07:48:02.552Z,101194.31
2024-02-15T07:50:49.774Z,101185.09
2024-02-15T07:53:36.285Z,101187.44
2024-02-15T07:56:23.226Z,101193.56
2024-02-15T07:59:10.216Z,101190.88
2024-02-15T08:01:59.223Z,101193.47
2024-02-15T08:04:46.744Z,101194.56
2024-02-15T08:07:36.854Z,101190.22
2024-02-15T08:10:23.789Z,101188.00
2024-02-15T08:13:10.448Z,101190.69
2024-02-15T08:15:58.731Z,101190.13
2024-02-15T08:18:48.438Z,101201.03
2024-02-15T08:21:37.528Z,101197.22
2024-02-15T08:24:24.588Z,101201.44
2024-02-15T08:27:11.970Z,101201.94
2024-02-15T08:29:59.860Z,101203.84
2024-02-15T08:32:46.887Z,101197.59
2024-02-15T08:35:35.154Z,101204.00
2024-02-15T08:38:22.372Z,101203.22
2024-02-15T08:41:09.485Z,101201.09
2024-02-15T08:43:58.010Z,101205.13
2024-02-15T08:46:46.393Z,101213.31
2024-02-15T08:49:33.818Z,101210.41
2024-02-15T08:52:22.147Z,101201.94
2024-02-15T08:55:10.806Z,101210.03
2024-02-15T08:57:57.520Z,101213.97
2024-02-15T09:00:46.143Z,101209.16
2024-02-15T09:03:33.066Z,101205.44
2024-02-15T09:06:19.687Z,101206.59
2024-02-15T09:09:07.876Z,101202.53
2024-02-15T09:11:55.113Z,101209.69
2024-02-15T09:14:41.803Z,101201.69
2024-02-15T09:17:28.706Z,101201.16
2024-02-15T09:20:19.614Z,101207.56
2024-02-15T09:23:10.746Z,101204.84
2024-02-15T09:26:00.428Z,101199.47
2024-02-15T09:28:47.098Z,101212.50
2024-02-15T09:31:35.900Z,101207.31
2024-02-15T09:34:22.586Z,101202.63
2024-02-15T09:37:09.424Z,101210.16
2024-02-15T09:39:57.286Z,101201.19
2024-02-15T09:42:46.587Z,101210.81
2024-02-15T09:45:36.351Z,101212.56
2024-02-15T09:48:27.376Z,101210.75
2024-02-15T09:51:15.137Z,101216.78
2024-02-15T09:54:03.420Z,101214.63
2024-02-15T09:56:51.251Z,101217.97
2024-02-15T09:59:40.217Z,101217.06
2024-02-15T10:02:28.163Z,101232.34
2024-02-15T10:05:15.255Z,101228.75
2024-02-15T10:08:02.359Z,101225.53
2024-02-15T10:10:48.820Z,101241.03
2024-02-15T10:13:35.807Z,101241.72
2024-02-15T10:16:26.577Z,101240.19
2024-02-15T10:19:14.462Z,101238.38
2024-02-15T10:22:08.697Z,101241.63
2024-02-15T10:25:12.909Z,101226.09
2024-02-15T10:28:04.185Z,101227.88
2024-02-15T10:30:53.809Z,101224.88
2024-02-15T10:33:44.189Z,101225.16
2024-02-15T10:36:33.773Z,101216.97
2024-02-15T10:39:21.871Z,101220.88
2024-02-15T10:42:12.304Z,101223.34
2024-02-15T10:45:00.424Z,101224.47
2024-02-15T10:47:48.966Z,101220.16
2024-02-15T10:50:37.786Z,101217.94
2024-02-15T10:53:29.052Z,101220.84
2024-02-15T10:56:21.015Z,101222.22
2024-02-15T10:59:16.555Z,101218.78
2024-02-15T11:02:08.997Z,101215.72
2024-02-15T11:04:58.345Z,101196.03
2024-02-15T11:07:46.984Z,101215.41
2024-02-15T11:10:34.519Z,101217.75
2024-02-15T11:13:21.125Z,101214.03
2024-02-15T11:16:08.125Z,101208.47
2024-02-15T11:18:56.814Z,101206.16
2024-02-15T11:21:58.234Z,101201.47
2024-02-15T11:24:50.692Z,101207.00
2024-02-15T11:27:39.650Z,101201.19
2024-02-15T11:30:35.389Z,101206.56
2024-02-15T11:33:31.790Z,101203.19
2024-02-15T11:36:19.926Z,101200.34
2024-02-15T11:39:45.265Z,101196.63
2024-02-15T11:42:33.732Z,101194.06
2024-02-15T11:45:21.221Z,101193.91
2024-02-15T11:48:12.658Z,101193.88
2024-02-15T11:51:01.130Z,101193.22
2024-02-15T11:54:00.500Z,101195.78
2024-02-15T11:57:06.718Z,101190.56
2024-02-15T12:00:11.754Z,101187.31
2024-02-15T12:03:19.277Z,101188.53
2024-02-15T12:06:24.690Z,101170.44
2024-02-15T12:09:29.724Z,101186.44
2024-02-15T12:12:33.966Z,101180.09
2024-02-15T12:15:39.757Z,101192.69
2024-02-15T12:18:46.631Z,101175.56
2024-02-15T12:21:35.119Z,101180.75
2024-02-15T12:24:27.771Z,101177.69
2024-02-15T12:27:15.661Z,101163.63
2024-02-15T12:30:07.438Z,101170.28
2024-02-15T12:33:12.012Z,101168.72
2024-02-15T12:36:06.733Z,101171.66
2024-02-15T12:39:01.457Z,101166.38
2024-02-15T12:41:52.565Z,101164.56
2024-02-15T12:44:47.062Z,101163.56
2024-02-15T12:47:33.603Z,101164.41
2024-02-15T12:50:23.918Z,101170.44
2024-02-15T12:53:10.941Z,101168.19
2024-02-15T12:55:58.309Z,101164.28
2024-02-15T12:58:46.153Z,101153.69
2024-02-15T13:01:33.173Z,101152.19
2024-02-15T13:04:27.629Z,101159.91
2024-02-15T13:07:15.862Z,101155.53
2024-02-15T13:10:08.043Z,101157.84
2024-02-15T13:12:56.884Z,101149.84
2024-02-15T13:15:45.453Z,101141.41
2024-02-15T13:18:32.872Z,101148.38
2024-02-15T13:21:19.893Z,101148.16
2024-02-15T13:24:08.335Z,101147.41
2024-02-15T13:26:57.645Z,101148.44
2024-02-15T13:29:49.831Z,101147.22
2024-02-15T13:32:40.242Z,101145.03
2024-02-15T13:35:26.965Z,101137.69
2024-02-15T13:38:16.582Z,101138.53
2024-02-15T13:41:05.315Z,101136.09
2024-02-15T13:43:52.118Z,101128.53
2024-02-15T13:46:40.296Z,101135.25
2024-02-15T13:49:32.401Z,101132.94
2024-02-15T13:52:20.052Z,101139.72
2024-02-15T13:55:07.298Z,101127.38
2024-02-15T13:57:56.907Z,101125.22
2024-02-15T14:00:44.559Z,101115.94
2024-02-15T14:03:32.278Z,101125.97
2024-02-15T14:06:20.352Z,101125.09
2024-02-15T14:09:06.965Z,101116.66
2024-02-15T14:11:54.886Z,101117.38
2024-02-15T14:14:44.117Z,101118.09
2024-02-15T14:17:30.956Z,101121.22
2024-02-15T14:20:18.053Z,101122.16
2024-02-15T14:23:07.369Z,101116.44
2024-02-15T14:25:55.211Z,101114.16
2024-02-15T14:28:42.982Z,101126.72
2024-02-15T14:31:48.297Z,101127.81
2024-02-15T14:34:37.447Z,101126.19
2024-02-15T14:37:24.030Z,101131.38
2024-02-15T14:40:18.781Z,101132.25
2024-02-15T14:43:06.748Z,101131.94
2024-02-15T14:45:54.257Z,101129.09
2024-02-15T14:48:42.536Z,101123.75
2024-02-15T14:51:29.297Z,101125.69
2024-02-15T14:54:23.590Z,101115.28
2024-02-15T14:57:10.897Z,101119.47
2024-02-15T14:59:57.958Z,101118.88
2024-02-15T15:02:44.777Z,101121.84
2024-02-15T15:05:54.016Z,101121.00
2024-02-15T15:08:59.535Z,101127.00
2024-02-15T15:12:04.000Z,101120.34
2024-02-15T15:14:50.750Z,101120.19
2024-02-15T15:17:39.952Z,101112.19
2024-02-15T15:20:27.809Z,101119.88
2024-02-15T15:23:17.245Z,101120.59
2024-02-15T15:26:04.065Z,101123.84
2024-02-15T15:28:51.872Z,101125.72
2024-02-15T15:31:39.809Z,101125.00
2024-02-15T15:34:27.038Z,101125.88
2024-02-15T15:37:15.535Z,101120.16
2024-02-15T15:40:03.674Z,101138.41
2024-02-15T15:42:50.310Z,101134.72
2024-02-15T15:45:37.469Z,101137.56
2024-02-15T15:48:24.904Z,101130.75
2024-02-15T15:51:12.180Z,101128.78
2024-02-15T15:53:59.460Z,101125.81
2024-02-15T15:56:47.400Z,101125.97
2024-02-15T15:59:33.911Z,101133.13
2024-02-15T16:02:23.264Z,101130.53
2024-02-15T16:05:13.258Z,101121.34
2024-02-15T16:08:00.487Z,101128.25
2024-02-15T16:10:47.239Z,101130.94
2024-02-15T16:13:35.921Z,101132.28
2024-02-15T16:16:22.880Z,101127.00
2024-02-15T16:19:09.754Z,101130.41
2024-02-15T16:21:57.320Z,101128.47
2024-02-15T16:24:46.362Z,101141.56
2024-02-15T16:27:33.762Z,101136.78
2024-02-15T16:30:25.430Z,101141.53
2024-02-15T16:33:15.921Z,101145.88
2024-02-15T16:36:12.370Z,101149.53
2024-02-15T16:39:00.775Z,101148.91
2024-02-15T16:41:50.087Z,101147.44
2024-02-15T16:44:37.254Z,101136.09
2024-02-15T16:47:25.549Z,101142.22
2024-02-15T16:50:18.248Z,101137.50
2024-02-15T16:53:09.354Z,101140.66
2024-02-15T16:55:56.927Z,101133.34
2024-02-15T16:58:43.537Z,101110.25
2024-02-15T17:01:30.451Z,101138.16
2024-02-15T17:04:18.836Z,101132.91
2024-02-15T17:07:06.769Z,101140.06
2024-02-15T17:09:53.779Z,101145.53
2024-02-15T17:12:41.698Z,101141.44
2024-02-15T17:15:30.123Z,101137.88
2024-02-15T17:18:24.637Z,101147.59
2024-02-15T17:21:15.598Z,101141.84
2024-02-15T17:24:02.931Z,101148.44
2024-02-15T17:26:49.869Z,101147.44
2024-02-15T17:29:36.741Z,101146.34
2024-02-15T17:32:24.594Z,101146.53
2024-02-15T17:35:14.906Z,101142.63
2024-02-15T17:38:03.218Z,101144.00
2024-02-15T17:40:50.989Z,101145.88
2024-02-15T17:43:38.119Z,101150.69
2024-02-15T17:46:25.379Z,101148.06
2024-02-15T17:49:12.022Z,101145.34
2024-02-15T17:51:58.857Z,101152.81
2024-02-15T17:54:47.746Z,101145.22
2024-02-15T17:57:35.054Z,101145.78
2024-02-15T18:00:22.114Z,101144.19
2024-02-15T18:03:11.108Z,101137.53
2024-02-15T18:05:57.988Z,101145.88
2024-02-15T18:08:44.870Z,101141.47
2024-02-15T18:11:33.205Z,101134.28
2024-02-15T18:14:20.022Z,101138.47
2024-02-15T18:17:07.044Z,101140.75
2024-02-15T18:19:54.078Z,101138.31
2024-02-15T18:22:41.173Z,101137.19
2024-02-15T18:25:27.861Z,101133.25
2024-02-15T18:28:17.362Z,101136.44
2024-02-15T18:31:04.585Z,101132.34
2024-02-15T18:33:55.523Z,101138.34
2024-02-15T18:36:42.787Z,101143.56
2024-02-15T18:39:30.110Z,101138.94
2024-02-15T18:42:18.135Z,101136.97
2024-02-15T18:45:08.242Z,101128.22
2024-02-15T18:47:55.302Z,101136.94
2024-02-15T18:50:46.443Z,101123.88
2024-02-15T18:53:33.344Z,101127.50
2024-02-15T18:56:21.420Z,101117.59
2024-02-15T18:59:08.081Z,101114.41
2024-02-15T19:01:58.631Z,101114.16
2024-02-15T19:04:47.258Z,101110.59
2024-02-15T19:07:34.053Z,101107.75
2024-02-15T19:10:22.201Z,101102.00
2024-02-15T19:13:10.254Z,101103.03
2024-02-15T19:15:58.031Z,101097.13
2024-02-15T19:18:46.585Z,101101.84
2024-02-15T19:21:33.536Z,101097.84
2024-02-15T19:24:20.604Z,101107.53
2024-02-15T19:27:08.623Z,101099.91
2024-02-15T19:29:55.731Z,101094.13
2024-02-15T19:32:42.830Z,101096.44
2024-02-15T19:35:32.175Z,101096.72
2024-02-15T19:38:19.217Z,101102.81
2024-02-15T19:41:06.251Z,101092.69
2024-02-15T19:43:53.512Z,101084.00
2024-02-15T19:46:42.440Z,101091.59
2024-02-15T19:49:29.072Z,101056.75
2024-02-15T19:52:19.026Z,101085.91
2024-02-15T19:55:06.424Z,101082.03
2024-02-15T19:57:53.833Z,101089.41
2024-02-15T20:00:41.498Z,101087.63
2024-02-15T20:03:29.262Z,101087.97
2024-02-15T20:06:16.414Z,101089.72
2024-02-15T20:09:07.002Z,101089.16
2024-02-15T20:11:53.717Z,101093.97
2024-02-15T20:14:41.042Z,101086.38
2024-02-15T20:17:27.968Z,101088.81
2024-02-15T20:20:17.889Z,101090.44
2024-02-15T20:23:05.529Z,101096.41
2024-02-15T20:25:53.477Z,101085.72
2024-02-15T20:28:41.801Z,101083.66
2024-02-15T20:31:32.099Z,101080.97
2024-02-15T20:34:19.189Z,101082.28
2024-02-15T20:37:06.297Z,101086.81
2024-02-15T20:39:54.865Z,101088.31
2024-02-15T20:42:42.795Z,101094.84
2024-02-15T20:45:29.590Z,101087.25
2024-02-15T20:48:16.379Z,101087.59
2024-02-15T20:51:03.175Z,101092.06
2024-02-15T20:53:51.849Z,101091.59
2024-02-15T20:56:38.334Z,101091.59
2024-02-15T20:59:28.268Z,101080.84
2024-02-15T21:02:19.021Z,101085.88
2024-02-15T21:05:10.323Z,101086.00
2024-02-15T21:07:57.102Z,101081.13
2024-02-15T21:10:44.466Z,101071.53
2024-02-15T21:13:36.128Z,101073.03
2024-02-15T21:16:25.010Z,101078.91
2024-02-15T21:19:13.216Z,101075.47
2024-02-15T21:22:02.066Z,101073.06
2024-02-15T21:24:48.775Z,101070.81
2024-02-15T21:27:35.508Z,101070.69
2024-02-15T21:30:23.356Z,101069.06
2024-02-15T21:33:11.895Z,101076.78
2024-02-15T21:35:58.639Z,101073.75
2024-02-15T21:38:46.455Z,101074.88
2024-02-15T21:41:33.338Z,101078.97
2024-02-15T21:44:20.262Z,101075.75
2024-02-15T21:47:07.214Z,101071.31
2024-02-15T21:50:05.737Z,101078.50
2024-02-15T21:52:54.116Z,101064.81
2024-02-15T21:55:41.052Z,101060.44
2024-02-15T21:58:37.456Z,101058.06
2024-02-15T22:01:27.484Z,101063.03
2024-02-15T22:04:15.628Z,101068.72
2024-02-15T22:07:03.837Z,101068.38
2024-02-15T22:09:53.338Z,101067.47
2024-02-15T22:12:41.923Z,101070.31
2024-02-15T22:15:28.663Z,101064.06
2024-02-15T22:18:15.783Z,101066.56
2024-02-15T22:21:04.469Z,101067.19
2024-02-15T22:23:52.998Z,101062.50
2024-02-15T22:26:40.016Z,101056.13
2024-02-15T22:29:26.750Z,101055.56
2024-02-15T22:32:13.788Z,101060.31
2024-02-15T22:35:00.660Z,101054.31
2024-02-15T22:37:48.767Z,101053.75
2024-02-15T22:40:37.792Z,101066.81
2024-02-15T22:43:24.141Z,101064.50
2024-02-15T22:46:12.574Z,101060.56
2024-02-15T22:49:00.439Z,101061.06
2024-02-15T22:51:47.091Z,101063.25
2024-02-15T22:54:38.361Z,101060.75
2024-02-15T22:57:29.850Z,101069.44
2024-02-15T23:00:17.468Z,101076.59
2024-02-15T23:03:04.603Z,101066.03
2024-02-15T23:05:52.902Z,101072.28
2024-02-15T23:08:40.193Z,101068.41
2024-02-15T23:11:26.885Z,101071.69
2024-02-15T23:14:15.343Z,101069.13
2024-02-15T23:17:02.012Z,101074.28
2024-02-15T23:19:48.908Z,101067.22
2024-02-15T23:22:35.845Z,101071.09
2024-02-15T23:25:22.990Z,101068.00
2024-02-15T23:28:10.736Z,101067.41
2024-02-15T23:30:59.115Z,101066.34
2024-02-15T23:33:46.283Z,101069.22
2024-02-15T23:36:50.333Z,101062.84
2024-02-15T23:39:54.492Z,101061.13
2024-02-15T23:42:41.360Z,101058.19
2024-02-15T23:45:30.243Z,101060.91
2024-02-15T23:48:18.923Z,101057.69
2024-02-15T23:51:06.495Z,101057.13
2024-02-15T23:53:54.588Z,101058.38
2024-02-15T23:56:41.572Z,101061.22
2024-02-15T23:59:29.769Z,101061.97
